createdAt,value
2017-08-20T00:02:22.190Z,69.80
2017-08-20T00:04:49.679Z,69.90
2017-08-20T00:07:17.168Z,69.80
2017-08-20T00:09:44.650Z,70.20
2017-08-20T00:12:12.238Z,70.10
2017-08-20T00:14:39.819Z,70.10
2017-08-20T00:17:07.322Z,70.90
2017-08-20T00:19:34.806Z,70.10
2017-08-20T00:22:02.446Z,70.00
2017-08-20T00:24:29.940Z,70.10
2017-08-20T00:26:57.431Z,70.00
2017-08-20T00:29:24.924Z,69.80
2017-08-20T00:31:52.529Z,69.70
2017-08-20T00:34:20.001Z,70.00
2017-08-20T00:36:47.483Z,70.30
2017-08-20T00:39:14.975Z,70.30
2017-08-20T00:41:42.472Z,70.00
2017-08-20T00:44:10.022Z,69.20
2017-08-20T00:46:37.641Z,68.90
2017-08-20T00:49:05.222Z,68.90
2017-08-20T00:51:32.725Z,69.30
2017-08-20T00:54:00.256Z,69.20
2017-08-20T00:56:27.725Z,69.10
2017-08-20T00:58:55.254Z,69.10
2017-08-20T01:01:22.730Z,68.80
2017-08-20T01:03:50.193Z,69.60
2017-08-20T01:06:17.687Z,69.90
2017-08-20T01:08:45.168Z,69.90
2017-08-20T01:11:12.657Z,70.10
2017-08-20T01:13:40.119Z,70.10
2017-08-20T01:16:07.632Z,70.60
2017-08-20T01:18:35.156Z,70.20
2017-08-20T01:21:02.666Z,69.90
2017-08-20T01:23:30.224Z,69.60
2017-08-20T01:25:57.824Z,69.80
2017-08-20T01:28:25.309Z,70.30
2017-08-20T01:30:52.809Z,71.00
2017-08-20T01:33:20.296Z,70.30
2017-08-20T01:35:47.794Z,70.10
2017-08-20T01:38:15.277Z,69.60
2017-08-20T01:40:42.775Z,69.70
2017-08-20T01:43:10.381Z,70.10
2017-08-20T01:45:38.062Z,70.10
2017-08-20T01:48:05.549Z,70.60
2017-08-20T01:50:33.016Z,70.00
2017-08-20T01:53:00.689Z,70.00
2017-08-20T01:55:28.152Z,70.00
2017-08-20T01:57:55.635Z,70.70
2017-08-20T02:00:23.118Z,70.80
2017-08-20T02:02:50.621Z,70.60
2017-08-20T02:05:18.088Z,70.50
2017-08-20T02:07:45.571Z,70.60
2017-08-20T02:10:13.065Z,70.90
2017-08-20T02:12:40.537Z,70.40
2017-08-20T02:15:08.041Z,70.40
2017-08-20T02:17:35.512Z,70.20
2017-08-20T02:20:03.906Z,70.00
2017-08-20T02:22:31.405Z,70.30
2017-08-20T02:24:58.882Z,70.60
2017-08-20T02:27:26.394Z,71.70
2017-08-20T02:29:53.859Z,71.10
2017-08-20T02:32:21.337Z,71.10
2017-08-20T02:34:48.837Z,71.00
2017-08-20T02:37:16.295Z,71.10
2017-08-20T02:39:43.807Z,71.40
2017-08-20T02:42:11.300Z,71.40
2017-08-20T02:44:38.799Z,71.00
2017-08-20T02:47:06.324Z,71.40
2017-08-20T02:49:33.797Z,71.70
2017-08-20T02:52:02.218Z,72.00
2017-08-20T02:54:29.717Z,71.90
2017-08-20T02:56:57.247Z,71.40
2017-08-20T02:59:24.715Z,72.00
2017-08-20T03:01:52.186Z,71.80
2017-08-20T03:04:19.677Z,72.00
2017-08-20T03:06:47.157Z,71.40
2017-08-20T03:09:14.645Z,71.40
2017-08-20T03:11:42.233Z,71.40
2017-08-20T03:14:09.747Z,71.60
2017-08-20T03:16:37.241Z,71.90
2017-08-20T03:19:04.745Z,71.10
2017-08-20T03:21:32.232Z,71.30
2017-08-20T03:23:59.696Z,71.10
2017-08-20T03:26:27.195Z,70.70
2017-08-20T03:28:55.513Z,71.90
2017-08-20T03:31:22.991Z,71.90
2017-08-20T03:33:50.484Z,71.80
2017-08-20T03:36:18.021Z,71.80
2017-08-20T03:38:45.515Z,72.00
2017-08-20T03:41:12.999Z,71.30
2017-08-20T03:43:40.531Z,71.60
2017-08-20T03:46:08.020Z,71.30
2017-08-20T03:48:35.779Z,71.90
2017-08-20T03:51:03.257Z,71.60
2017-08-20T03:53:30.761Z,71.60
2017-08-20T03:55:58.230Z,71.20
2017-08-20T03:58:25.712Z,71.10
2017-08-20T04:00:53.214Z,71.00
2017-08-20T04:03:20.771Z,70.90
2017-08-20T04:05:49.081Z,70.70
2017-08-20T04:08:16.568Z,70.70
2017-08-20T04:10:44.058Z,70.80
2017-08-20T04:13:11.701Z,70.80
2017-08-20T04:15:39.171Z,70.30
2017-08-20T04:18:06.654Z,70.40
2017-08-20T04:20:34.124Z,70.70
2017-08-20T04:23:01.616Z,70.80
2017-08-20T04:25:29.090Z,70.60
2017-08-20T04:27:56.596Z,70.20
2017-08-20T04:30:24.077Z,70.00
2017-08-20T04:32:51.584Z,70.00
2017-08-20T04:35:19.075Z,69.90
2017-08-20T04:37:46.561Z,70.30
2017-08-20T04:40:14.082Z,70.20
2017-08-20T04:42:41.596Z,70.30
2017-08-20T04:45:09.093Z,70.10
2017-08-20T04:47:36.661Z,70.00
2017-08-20T04:50:04.179Z,70.00
2017-08-20T04:52:31.655Z,69.90
2017-08-20T04:54:59.157Z,70.00
2017-08-20T04:57:26.634Z,69.50
2017-08-20T04:59:54.129Z,69.50
2017-08-20T05:02:21.616Z,69.40
2017-08-20T05:04:49.097Z,68.50
2017-08-20T05:07:16.599Z,68.80
2017-08-20T05:09:44.086Z,68.80
2017-08-20T05:12:11.821Z,68.40
2017-08-20T05:14:39.307Z,68.70
2017-08-20T05:17:06.840Z,68.60
2017-08-20T05:19:34.360Z,68.40
2017-08-20T05:22:02.544Z,68.30
2017-08-20T05:24:30.047Z,68.00
2017-08-20T05:26:57.513Z,68.00
2017-08-20T05:29:25.079Z,67.90
2017-08-20T05:31:52.558Z,67.20
2017-08-20T05:34:20.123Z,67.20
2017-08-20T05:36:48.375Z,66.70
2017-08-20T05:39:15.922Z,66.90
2017-08-20T05:41:43.416Z,66.40
2017-08-20T05:44:11.392Z,65.60
2017-08-20T05:46:38.928Z,65.50
2017-08-20T05:49:06.407Z,65.80
2017-08-20T05:51:34.724Z,65.00
2017-08-20T05:54:02.217Z,65.00
2017-08-20T05:56:29.729Z,65.00
2017-08-20T05:58:57.192Z,64.50
2017-08-20T06:01:24.690Z,64.50
2017-08-20T06:03:52.172Z,63.30
2017-08-20T06:06:19.659Z,63.40
2017-08-20T06:08:47.196Z,63.30
2017-08-20T06:11:15.493Z,62.10
2017-08-20T06:13:43.135Z,62.00
2017-08-20T06:16:11.710Z,61.90
2017-08-20T06:18:39.442Z,62.00
2017-08-20T06:21:06.942Z,59.40
2017-08-20T06:23:34.440Z,59.80
2017-08-20T06:26:01.985Z,59.80
2017-08-20T06:28:29.480Z,59.90
2017-08-20T06:30:56.993Z,59.00
2017-08-20T06:33:24.491Z,59.20
2017-08-20T06:35:51.972Z,58.50
2017-08-20T06:38:19.475Z,58.30
2017-08-20T06:40:46.964Z,56.20
2017-08-20T06:43:14.446Z,55.80
2017-08-20T06:45:41.969Z,55.00
2017-08-20T06:48:09.484Z,55.00
2017-08-20T06:50:37.009Z,54.30
2017-08-20T06:53:04.545Z,53.20
2017-08-20T06:55:32.080Z,52.00
2017-08-20T06:57:59.572Z,51.80
2017-08-20T07:00:27.052Z,51.70
2017-08-20T07:02:54.539Z,51.10
2017-08-20T07:05:22.021Z,51.90
2017-08-20T07:07:49.542Z,51.50
2017-08-20T07:10:17.218Z,50.80
2017-08-20T07:12:44.704Z,49.30
2017-08-20T07:15:12.257Z,47.60
2017-08-20T07:17:39.739Z,46.20
2017-08-20T07:20:07.240Z,45.70
2017-08-20T07:22:34.868Z,46.60
2017-08-20T07:25:02.358Z,47.50
2017-08-20T07:27:29.966Z,48.60
2017-08-20T07:29:57.481Z,48.40
2017-08-20T07:32:24.975Z,48.90
2017-08-20T07:34:52.448Z,48.10
2017-08-20T07:37:19.965Z,49.30
2017-08-20T07:39:47.677Z,49.80
2017-08-20T07:42:15.202Z,49.20
2017-08-20T07:44:42.713Z,50.00
2017-08-20T07:47:10.342Z,49.70
2017-08-20T07:49:37.960Z,50.20
2017-08-20T07:52:05.440Z,49.30
2017-08-20T07:54:32.991Z,48.70
2017-08-20T07:57:00.521Z,49.60
2017-08-20T07:59:28.002Z,50.40
2017-08-20T08:01:55.506Z,49.40
2017-08-20T08:04:22.987Z,49.20
2017-08-20T08:06:50.478Z,48.80
2017-08-20T08:09:18.032Z,48.90
2017-08-20T08:11:45.513Z,49.20
2017-08-20T08:14:13.126Z,49.20
2017-08-20T08:16:40.626Z,48.90
2017-08-20T08:19:08.131Z,47.30
2017-08-20T08:21:35.622Z,46.70
2017-08-20T08:24:03.090Z,46.60
2017-08-20T08:26:30.818Z,47.50
2017-08-20T08:28:58.314Z,47.60
2017-08-20T08:31:25.901Z,47.60
2017-08-20T08:33:53.390Z,47.50
2017-08-20T08:36:20.879Z,48.20
2017-08-20T08:38:48.407Z,48.30
2017-08-20T08:41:15.896Z,48.20
2017-08-20T08:43:43.430Z,48.50
2017-08-20T08:46:11.277Z,48.70
2017-08-20T08:48:38.768Z,49.10
2017-08-20T08:51:06.251Z,49.40
2017-08-20T08:53:33.769Z,47.70
2017-08-20T08:56:01.275Z,47.90
2017-08-20T08:58:28.758Z,48.10
2017-08-20T09:00:56.303Z,48.90
2017-08-20T09:03:23.792Z,48.60
2017-08-20T09:05:51.319Z,46.10
2017-08-20T09:08:18.807Z,45.10
2017-08-20T09:10:46.292Z,45.00
2017-08-20T09:13:13.971Z,44.50
2017-08-20T09:15:41.450Z,44.50
2017-08-20T09:18:08.946Z,45.00
2017-08-20T09:20:36.495Z,45.30
2017-08-20T09:23:04.006Z,45.60
2017-08-20T09:25:31.557Z,45.80
2017-08-20T09:27:59.035Z,46.50
2017-08-20T09:30:26.509Z,46.90
2017-08-20T09:32:54.029Z,47.30
2017-08-20T09:35:21.501Z,46.40
2017-08-20T09:37:48.994Z,45.60
2017-08-20T09:40:16.501Z,44.60
2017-08-20T09:42:43.992Z,43.90
2017-08-20T09:45:11.891Z,40.80
2017-08-20T09:47:39.398Z,39.50
2017-08-20T09:50:06.858Z,39.40
2017-08-20T09:52:34.336Z,38.60
2017-08-20T09:55:01.820Z,38.60
2017-08-20T09:57:29.319Z,38.70
2017-08-20T09:59:56.843Z,39.30
2017-08-20T10:02:24.346Z,39.30
2017-08-20T10:04:51.998Z,40.30
2017-08-20T10:07:19.552Z,40.70
2017-08-20T10:09:47.044Z,40.40
2017-08-20T10:12:15.420Z,40.80
2017-08-20T10:14:42.930Z,41.30
2017-08-20T10:17:10.725Z,40.40
2017-08-20T10:19:38.200Z,36.60
2017-08-20T10:22:05.837Z,34.40
2017-08-20T10:24:33.375Z,33.40
2017-08-20T10:27:00.861Z,29.20
2017-08-20T10:29:28.421Z,28.30
2017-08-20T10:31:55.902Z,27.70
2017-08-20T10:34:23.563Z,26.20
2017-08-20T10:36:51.064Z,25.50
2017-08-20T10:39:18.587Z,26.30
2017-08-20T10:41:46.067Z,27.40
2017-08-20T10:44:13.542Z,28.40
2017-08-20T10:46:41.017Z,27.50
2017-08-20T10:49:08.592Z,27.80
2017-08-20T10:51:36.076Z,26.20
2017-08-20T10:54:03.544Z,26.20
2017-08-20T10:56:31.172Z,25.80
2017-08-20T10:58:58.660Z,25.60
2017-08-20T11:01:26.165Z,25.00
2017-08-20T11:03:53.631Z,25.00
2017-08-20T11:06:21.117Z,25.00
2017-08-20T11:08:48.628Z,25.40
2017-08-20T11:11:16.118Z,25.20
2017-08-20T11:13:43.613Z,26.10
2017-08-20T11:16:11.191Z,26.80
2017-08-20T11:18:38.698Z,27.40
2017-08-20T11:21:06.219Z,26.90
2017-08-20T11:23:33.685Z,27.60
2017-08-20T11:26:01.264Z,28.60
2017-08-20T11:28:28.746Z,29.70
2017-08-20T11:30:56.397Z,30.70
2017-08-20T11:33:23.979Z,32.60
2017-08-20T11:35:51.475Z,33.90
2017-08-20T11:38:18.957Z,33.30
2017-08-20T11:40:46.487Z,32.90
2017-08-20T11:43:14.100Z,34.80
2017-08-20T11:45:41.577Z,34.30
2017-08-20T11:48:09.129Z,34.80
2017-08-20T11:50:36.908Z,34.20
2017-08-20T11:53:04.523Z,35.60
2017-08-20T11:55:31.995Z,35.70
2017-08-20T11:57:59.531Z,35.00
2017-08-20T12:00:27.061Z,33.90
2017-08-20T12:02:54.562Z,34.90
2017-08-20T12:05:22.071Z,33.60
2017-08-20T12:07:49.561Z,33.60
2017-08-20T12:10:17.055Z,33.60
2017-08-20T12:12:44.590Z,34.10
2017-08-20T12:15:12.248Z,34.90
2017-08-20T12:17:39.720Z,34.60
2017-08-20T12:20:07.238Z,36.00
2017-08-20T12:22:34.709Z,36.90
2017-08-20T12:25:02.387Z,37.60
2017-08-20T12:27:29.870Z,37.00
2017-08-20T12:29:57.347Z,37.30
2017-08-20T12:32:24.857Z,36.60
2017-08-20T12:34:52.416Z,36.20
2017-08-20T12:37:19.914Z,36.80
2017-08-20T12:39:47.390Z,35.90
2017-08-20T12:42:14.873Z,36.40
2017-08-20T12:44:42.368Z,37.20
2017-08-20T12:47:10.131Z,37.00
2017-08-20T12:49:37.777Z,37.50
2017-08-20T12:52:05.254Z,39.20
2017-08-20T12:54:32.793Z,38.70
2017-08-20T12:57:00.385Z,38.80
2017-08-20T12:59:27.881Z,39.20
2017-08-20T13:01:55.439Z,39.00
2017-08-20T13:04:22.975Z,40.50
2017-08-20T13:06:50.465Z,40.70
2017-08-20T13:09:17.971Z,41.40
2017-08-20T13:11:45.472Z,38.20
2017-08-20T13:14:12.990Z,37.90
2017-08-20T13:16:40.468Z,37.90
2017-08-20T13:19:08.070Z,37.80
2017-08-20T13:21:35.567Z,38.80
2017-08-20T13:24:03.036Z,38.70
2017-08-20T13:26:30.687Z,38.90
2017-08-20T13:28:58.168Z,38.60
2017-08-20T13:31:25.750Z,38.90
2017-08-20T13:33:53.245Z,38.50
2017-08-20T13:36:20.771Z,38.40
2017-08-20T13:38:48.261Z,38.30
2017-08-20T13:41:15.752Z,37.40
2017-08-20T13:43:43.243Z,36.90
2017-08-20T13:46:11.081Z,37.20
2017-08-20T13:48:38.696Z,37.10
2017-08-20T13:51:06.416Z,36.90
2017-08-20T13:53:34.056Z,37.70
2017-08-20T13:56:01.599Z,37.10
2017-08-20T13:58:29.095Z,36.80
2017-08-20T14:00:56.578Z,37.00
2017-08-20T14:03:24.058Z,37.10
2017-08-20T14:05:51.719Z,36.40
2017-08-20T14:08:19.221Z,36.70
2017-08-20T14:10:46.845Z,36.80
2017-08-20T14:13:14.322Z,37.20
2017-08-20T14:15:41.849Z,37.40
2017-08-20T14:18:09.362Z,36.70
2017-08-20T14:20:36.953Z,37.40
2017-08-20T14:23:04.775Z,36.10
2017-08-20T14:25:32.317Z,36.80
2017-08-20T14:27:59.862Z,37.50
2017-08-20T14:30:27.378Z,38.40
2017-08-20T14:32:54.864Z,38.90
2017-08-20T14:35:22.355Z,39.30
2017-08-20T14:37:49.828Z,38.80
2017-08-20T14:40:17.367Z,39.50
2017-08-20T14:42:44.833Z,38.80
2017-08-20T14:45:13.118Z,39.70
2017-08-20T14:47:40.621Z,39.80
2017-08-20T14:50:08.097Z,38.60
2017-08-20T14:52:35.574Z,36.20
2017-08-20T14:55:03.420Z,35.10
2017-08-20T14:57:30.936Z,34.40
2017-08-20T14:59:58.407Z,35.00
2017-08-20T15:02:26.041Z,35.40
2017-08-20T15:04:53.568Z,35.60
2017-08-20T15:07:21.110Z,34.40
2017-08-20T15:09:48.673Z,34.20
2017-08-20T15:12:16.176Z,35.10
2017-08-20T15:14:43.654Z,35.50
2017-08-20T15:17:11.141Z,35.80
2017-08-20T15:19:38.746Z,36.50
2017-08-20T15:22:06.259Z,36.80
2017-08-20T15:24:33.736Z,37.40
2017-08-20T15:27:01.495Z,38.50
2017-08-20T15:29:29.018Z,39.30
2017-08-20T15:31:56.526Z,39.70
2017-08-20T15:34:24.007Z,39.80
2017-08-20T15:36:51.588Z,39.00
2017-08-20T15:39:19.067Z,39.60
2017-08-20T15:41:46.625Z,39.50
2017-08-20T15:44:14.142Z,40.10
2017-08-20T15:46:41.625Z,40.30
2017-08-20T15:49:09.189Z,40.10
2017-08-20T15:51:36.738Z,40.30
2017-08-20T15:54:05.138Z,40.30
2017-08-20T15:56:32.651Z,40.50
2017-08-20T15:59:00.148Z,40.20
2017-08-20T16:01:27.646Z,40.20
2017-08-20T16:03:55.144Z,40.10
2017-08-20T16:06:22.642Z,38.70
2017-08-20T16:08:50.110Z,37.70
2017-08-20T16:11:17.631Z,37.70
2017-08-20T16:13:45.092Z,38.00
2017-08-20T16:16:12.959Z,38.90
2017-08-20T16:18:40.563Z,39.20
2017-08-20T16:21:08.060Z,39.40
2017-08-20T16:23:35.585Z,38.40
2017-08-20T16:26:03.095Z,38.30
2017-08-20T16:28:30.622Z,37.10
2017-08-20T16:30:58.119Z,36.40
2017-08-20T16:33:25.723Z,36.80
2017-08-20T16:35:53.434Z,37.00
2017-08-20T16:38:22.096Z,36.90
2017-08-20T16:40:49.707Z,37.20
2017-08-20T16:43:17.188Z,36.80
2017-08-20T16:45:44.748Z,37.00
2017-08-20T16:48:12.235Z,37.80
2017-08-20T16:50:39.781Z,37.50
2017-08-20T16:53:07.269Z,38.20
2017-08-20T16:55:34.805Z,38.70
2017-08-20T16:58:02.312Z,38.00
2017-08-20T17:00:29.871Z,38.50
2017-08-20T17:02:57.437Z,38.80
2017-08-20T17:05:24.956Z,39.80
2017-08-20T17:07:52.561Z,40.50
2017-08-20T17:10:20.075Z,40.80
2017-08-20T17:12:47.859Z,39.90
2017-08-20T17:15:15.372Z,40.30
2017-08-20T17:17:42.874Z,40.60
2017-08-20T17:20:10.703Z,40.60
2017-08-20T17:22:38.361Z,40.90
2017-08-20T17:25:05.915Z,40.70
2017-08-20T17:27:33.463Z,41.00
2017-08-20T17:30:00.955Z,41.20
2017-08-20T17:32:28.444Z,41.40
2017-08-20T17:34:56.055Z,41.60
2017-08-20T17:37:23.537Z,41.90
2017-08-20T17:39:51.067Z,41.90
2017-08-20T17:42:18.635Z,42.20
2017-08-20T17:44:46.129Z,42.30
2017-08-20T17:47:13.704Z,42.50
2017-08-20T17:49:41.245Z,42.90
2017-08-20T17:52:08.721Z,43.00
2017-08-20T17:54:36.217Z,43.40
2017-08-20T17:57:03.743Z,43.20
2017-08-20T17:59:31.425Z,43.50
2017-08-20T18:01:58.912Z,43.70
2017-08-20T18:04:26.442Z,44.30
2017-08-20T18:06:53.947Z,44.70
2017-08-20T18:09:21.459Z,45.30
2017-08-20T18:11:48.915Z,45.70
2017-08-20T18:14:17.173Z,46.10
2017-08-20T18:16:44.642Z,46.10
2017-08-20T18:19:12.253Z,46.50
2017-08-20T18:21:39.789Z,46.90
2017-08-20T18:24:07.276Z,47.10
2017-08-20T18:26:34.830Z,47.60
2017-08-20T18:29:02.420Z,47.80
2017-08-20T18:31:29.911Z,48.20
2017-08-20T18:33:57.397Z,48.40
2017-08-20T18:36:24.948Z,48.30
2017-08-20T18:38:52.435Z,48.60
2017-08-20T18:41:19.960Z,48.50
2017-08-20T18:43:47.445Z,48.80
2017-08-20T18:46:14.955Z,48.60
2017-08-20T18:48:42.525Z,48.40
2017-08-20T18:51:10.297Z,48.70
2017-08-20T18:53:37.975Z,49.00
2017-08-20T18:56:05.471Z,49.10
2017-08-20T18:58:32.938Z,49.00
2017-08-20T19:01:00.464Z,49.40
2017-08-20T19:03:27.932Z,49.30
2017-08-20T19:05:55.409Z,49.40
2017-08-20T19:08:23.016Z,49.40
2017-08-20T19:10:50.498Z,49.70
2017-08-20T19:13:18.006Z,50.00
2017-08-20T19:15:45.484Z,50.00
2017-08-20T19:18:12.984Z,49.80
2017-08-20T19:20:40.488Z,49.80
2017-08-20T19:23:07.961Z,49.80
2017-08-20T19:25:35.441Z,49.70
2017-08-20T19:28:02.961Z,49.70
2017-08-20T19:30:30.445Z,49.70
2017-08-20T19:32:57.988Z,49.40
2017-08-20T19:35:25.481Z,49.40
2017-08-20T19:37:53.041Z,49.50
2017-08-20T19:40:20.546Z,49.40
2017-08-20T19:42:48.037Z,49.10
2017-08-20T19:45:15.524Z,48.90
2017-08-20T19:47:43.022Z,49.20
2017-08-20T19:50:10.877Z,49.10
2017-08-20T19:52:38.550Z,49.40
2017-08-20T19:55:06.037Z,49.80
2017-08-20T19:57:33.580Z,49.90
2017-08-20T20:00:01.159Z,49.80
2017-08-20T20:02:28.628Z,50.10
2017-08-20T20:04:56.131Z,50.50
2017-08-20T20:07:24.429Z,50.50
2017-08-20T20:09:51.932Z,50.50
2017-08-20T20:12:19.426Z,50.40
2017-08-20T20:14:46.908Z,50.30
2017-08-20T20:17:14.491Z,50.40
2017-08-20T20:19:41.993Z,50.50
2017-08-20T20:22:09.519Z,50.70
2017-08-20T20:24:37.059Z,50.50
2017-08-20T20:27:04.543Z,50.00
2017-08-20T20:29:32.047Z,49.60
2017-08-20T20:31:59.738Z,50.60
2017-08-20T20:34:27.251Z,51.10
2017-08-20T20:36:54.740Z,51.30
2017-08-20T20:39:22.245Z,51.40
2017-08-20T20:41:49.766Z,51.60
2017-08-20T20:44:17.251Z,51.60
2017-08-20T20:46:44.810Z,52.40
2017-08-20T20:49:12.296Z,52.40
2017-08-20T20:51:39.809Z,52.50
2017-08-20T20:54:07.302Z,52.90
2017-08-20T20:56:34.772Z,53.40
2017-08-20T20:59:02.461Z,53.90
2017-08-20T21:01:30.053Z,53.90
2017-08-20T21:03:58.342Z,54.70
2017-08-20T21:06:25.841Z,54.80
2017-08-20T21:08:53.336Z,55.10
2017-08-20T21:11:20.865Z,54.90
2017-08-20T21:13:48.345Z,54.00
2017-08-20T21:16:15.884Z,53.80
2017-08-20T21:18:43.549Z,52.70
2017-08-20T21:21:11.091Z,51.80
2017-08-20T21:23:38.725Z,51.60
2017-08-20T21:26:06.216Z,52.90
2017-08-20T21:28:33.677Z,53.80
2017-08-20T21:31:01.303Z,54.30
2017-08-20T21:33:28.850Z,54.60
2017-08-20T21:35:56.400Z,54.50
2017-08-20T21:38:23.875Z,54.60
2017-08-20T21:40:51.372Z,54.10
2017-08-20T21:43:18.864Z,54.50
2017-08-20T21:45:46.360Z,54.60
2017-08-20T21:48:13.878Z,54.90
2017-08-20T21:50:41.400Z,54.90
2017-08-20T21:53:08.901Z,55.60
2017-08-20T21:55:36.419Z,56.10
2017-08-20T21:58:03.902Z,56.20
2017-08-20T22:00:31.386Z,56.60
2017-08-20T22:02:58.879Z,56.90
2017-08-20T22:05:26.355Z,56.50
2017-08-20T22:07:53.855Z,56.50
2017-08-20T22:10:21.357Z,56.70
2017-08-20T22:12:48.854Z,56.90
2017-08-20T22:15:16.374Z,56.90
2017-08-20T22:17:43.878Z,56.90
2017-08-20T22:20:11.836Z,56.90
2017-08-20T22:22:39.478Z,56.90
2017-08-20T22:25:06.978Z,57.00
2017-08-20T22:27:34.443Z,56.90
2017-08-20T22:30:01.947Z,56.80
2017-08-20T22:32:29.440Z,56.50
2017-08-20T22:34:56.929Z,56.40
2017-08-20T22:37:24.411Z,55.90
2017-08-20T22:39:51.909Z,55.70
2017-08-20T22:42:19.404Z,55.80
2017-08-20T22:44:46.890Z,55.90
2017-08-20T22:47:14.388Z,55.80
2017-08-20T22:49:41.848Z,56.50
2017-08-20T22:52:09.367Z,55.70
2017-08-20T22:54:36.863Z,55.90
2017-08-20T22:57:04.394Z,55.80
2017-08-20T22:59:31.980Z,56.20
2017-08-20T23:01:59.455Z,56.20
2017-08-20T23:04:26.936Z,56.40
2017-08-20T23:06:54.424Z,56.20
2017-08-20T23:09:21.893Z,56.50
2017-08-20T23:11:49.385Z,56.60
2017-08-20T23:14:16.866Z,56.80
2017-08-20T23:16:44.331Z,57.00
2017-08-20T23:19:11.844Z,57.20
2017-08-20T23:21:39.374Z,57.40
2017-08-20T23:24:06.859Z,57.90
2017-08-20T23:26:34.362Z,57.60
2017-08-20T23:29:01.844Z,57.50
2017-08-20T23:31:29.337Z,57.40
2017-08-20T23:33:56.808Z,56.80
2017-08-20T23:36:24.312Z,56.60
2017-08-20T23:38:51.785Z,56.30
2017-08-20T23:41:19.274Z,56.60
2017-08-20T23:43:46.773Z,56.70
2017-08-20T23:46:14.277Z,56.80
2017-08-20T23:48:41.771Z,57.10
2017-08-20T23:51:09.297Z,57.20
2017-08-20T23:53:36.860Z,57.00
2017-08-20T23:56:04.382Z,56.90
2017-08-20T23:58:31.908Z,56.90
